EST,Max TemperatureF,Mean TemperatureF,Min TemperatureF,Max Dew PointF,MeanDew PointF,Min DewpointF,Max Humidity, Mean Humidity, Min Humidity, Max Sea Level PressureIn, Mean Sea Level PressureIn, Min Sea Level PressureIn, Max VisibilityMiles, Mean VisibilityMiles, Min VisibilityMiles, Max Wind SpeedMPH, Mean Wind SpeedMPH, Max Gust SpeedMPH,PrecipitationIn, CloudCover, Events, WindDirDegrees
2012-12-1,41,38,35,37,32,21,100,82,56,30.62,30.57,30.50,10,10,5,9,6,,0.00,7,Rain-Snow,74
2012-12-2,59,49,39,52,45,37,100,86,67,30.50,30.28,30.07,10,9,3,13,3,22,0.00,5,,190
2012-12-3,59,47,35,48,42,34,100,77,51,30.31,30.16,30.04,10,10,9,12,7,22,0.00,1,,258
2012-12-4,55,44,32,54,44,32,100,91,77,30.34,30.24,30.02,10,8,0,12,4,22,0.00,6,Rain,178
2012-12-5,60,50,39,55,41,23,94,66,46,30.09,29.95,29.85,10,10,7,15,10,23,0.00,4,Rain,253
2012-12-6,39,32,24,21,21,18,86,63,42,30.33,30.31,30.27,10,10,3,12,6,17,0.00,0,,299
2012-12-7,46,35,24,43,33,21,100,87,66,30.32,30.19,30.06,10,10,5,9,2,,0.00,5,Rain,211
2012-12-8,48,46,44,48,45,43,100,99,93,30.06,29.95,29.86,10,4,1,9,2,,0.02,8,Rain,335
2012-12-9,48,44,41,46,39,32,100,79,57,30.30,30.19,29.97,10,8,1,13,5,20,0.00,2,Rain,338
2012-12-10,62,53,44,61,56,41,100,95,87,30.16,29.75,29.51,10,7,1,13,9,20,0.42,7,Rain-Thunderstorm,179
2012-12-11,59,47,35,57,38,25,94,75,50,30.16,29.87,29.55,10,10,9,9,5,22,0.00,4,Rain,273
2012-12-12,39,34,30,28,26,21,87,72,49,30.44,30.34,30.17,10,10,10,10,4,16,0.00,0,,272
2012-12-13,44,36,28,32,29,27,100,83,57,30.48,30.41,30.32,10,10,10,7,3,,0.00,0,,271
2012-12-14,48,38,28,28,26,23,93,69,37,30.31,30.19,30.06,10,10,10,14,4,20,0.00,0,,237
2012-12-15,41,36,30,28,27,23,93,72,49,30.35,30.29,30.17,10,10,10,12,5,20,0.00,1,,358
2012-12-16,41,37,35,37,30,23,93,76,60,30.34,30.24,30.08,10,8,2,15,9,24,0.03,7,Rain-Snow,84
2012-12-17,48,44,41,46,44,39,100,95,87,30.07,29.95,29.79,5,2,0,18,12,25,0.06,8,Rain,63
2012-12-18,55,50,44,54,48,41,100,94,82,29.78,29.52,29.42,10,6,0,15,7,21,0.08,7,Rain,186
2012-12-19,44,42,39,41,34,32,87,71,61,30.02,29.67,29.44,10,10,10,17,10,26,0.00,7,Rain-Thunderstorm,292
2012-12-20,42,40,39,37,34,32,93,79,70,30.21,30.14,30.03,10,10,5,10,7,17,0.00,7,Rain,348
2012-12-21,53,47,41,52,41,32,100,84,70,30.05,29.47,29.15,10,8,1,26,13,38,0.30,7,Rain,140
2012-12-22,41,36,32,34,25,18,87,66,45,29.65,29.42,29.26,10,10,6,18,9,29,0.00,2,,238
2012-12-23,39,34,30,27,21,16,86,61,45,29.89,29.82,29.65,10,10,10,15,8,24,0.00,1,,241
2012-12-24,41,34,26,28,23,19,87,68,45,30.08,30.02,29.88,10,10,7,9,4,,0.00,0,,231
2012-12-25,35,34,30,34,31,25,100,91,75,30.22,30.06,29.99,10,9,2,10,3,16,0.00,6,Rain-Snow,300
2012-12-26,39,32,26,37,29,21,93,79,70,30.31,30.21,29.93,10,9,3,25,8,37,0.16,5,Rain,21
2012-12-27,51,42,32,52,41,30,100,93,87,29.90,29.44,29.20,10,4,0,36,20,53,0.26,8,Rain,24
2012-12-28,37,34,30,30,25,21,87,71,56,30.03,29.87,29.61,10,10,10,15,9,28,0.00,2,,276
2012-12-29,39,34,28,37,30,27,100,88,75,30.03,29.79,29.35,10,8,0,25,5,31,0.46,3,Rain-Snow,354
2012-12-30,32,28,24,32,23,12,100,74,55,29.97,29.67,29.38,10,9,0,16,12,29,0.01,3,,284
2012-12-31,33,27,21,27,21,12,86,74,63,30.07,29.96,29.79,10,10,10,13,6,18,0.00,1,,235